createdAt,value
2022-12-04T00:01:07.240Z,67.22
2022-12-04T00:03:34.697Z,57.90
2022-12-04T00:06:14.881Z,68.70
2022-12-04T00:08:41.999Z,57.55
2022-12-04T00:11:10.450Z,61.22
2022-12-04T00:13:38.250Z,67.40
2022-12-04T00:16:07.283Z,60.30
2022-12-04T00:18:34.828Z,64.95
2022-12-04T00:21:05.837Z,56.72
2022-12-04T00:23:33.850Z,56.47
2022-12-04T00:26:06.095Z,50.30
2022-12-04T00:28:34.156Z,60.50
2022-12-04T00:31:04.295Z,64.20
2022-12-04T00:33:30.871Z,58.33
2022-12-04T00:36:07.339Z,52.92
2022-12-04T00:38:34.516Z,51.70
2022-12-04T00:41:01.073Z,57.33
2022-12-04T00:43:28.643Z,51.83
2022-12-04T00:45:55.874Z,50.45
2022-12-04T00:48:23.129Z,55.22
2022-12-04T00:50:49.724Z,47.47
2022-12-04T00:53:16.397Z,61.05
2022-12-04T00:55:43.839Z,55.28
2022-12-04T00:58:11.039Z,56.70
2022-12-04T01:00:39.995Z,49.53
2022-12-04T01:03:07.513Z,45.83
2022-12-04T01:05:44.932Z,54.25
2022-12-04T01:08:12.947Z,58.53
2022-12-04T01:10:41.634Z,55.75
2022-12-04T01:13:08.684Z,49.17
2022-12-04T01:15:39.244Z,55.00
2022-12-04T01:18:06.213Z,51.10
2022-12-04T01:20:32.980Z,49.83
2022-12-04T01:22:59.495Z,52.40
2022-12-04T01:25:25.956Z,54.45
2022-12-04T01:27:52.434Z,57.30
2022-12-04T01:30:19.230Z,55.72
2022-12-04T01:32:45.767Z,58.70
2022-12-04T01:35:12.402Z,54.05
2022-12-04T01:37:38.888Z,48.42
2022-12-04T01:40:06.382Z,51.47
2022-12-04T01:42:32.822Z,57.85
2022-12-04T01:45:33.895Z,47.83
2022-12-04T01:48:18.768Z,54.67
2022-12-04T01:50:46.908Z,57.70
2022-12-04T01:53:14.281Z,51.10
2022-12-04T01:55:41.670Z,53.22
2022-12-04T01:58:08.659Z,53.92
2022-12-04T02:00:35.171Z,66.00
2022-12-04T02:03:01.769Z,48.30
2022-12-04T02:05:28.324Z,59.33
2022-12-04T02:08:00.263Z,58.42
2022-12-04T02:10:52.175Z,62.15
2022-12-04T02:13:37.902Z,59.65
2022-12-04T02:16:23.101Z,57.53
2022-12-04T02:18:58.854Z,60.40
2022-12-04T02:21:37.691Z,55.40
2022-12-04T02:24:22.532Z,55.78
2022-12-04T02:27:01.712Z,56.63
2022-12-04T02:29:46.488Z,65.60
2022-12-04T02:32:22.348Z,58.05
2022-12-04T02:34:58.961Z,65.75
2022-12-04T02:37:31.738Z,65.55
2022-12-04T02:40:20.722Z,70.25
2022-12-04T02:42:58.132Z,62.17
2022-12-04T02:45:30.159Z,57.83
2022-12-04T02:48:00.928Z,54.50
2022-12-04T02:50:29.935Z,55.50
2022-12-04T02:53:06.022Z,53.15
2022-12-04T02:55:39.146Z,49.03
2022-12-04T02:58:11.928Z,61.13
2022-12-04T03:00:41.456Z,57.85
2022-12-04T03:03:15.246Z,50.42
2022-12-04T03:05:54.812Z,52.90
2022-12-04T03:08:26.796Z,54.60
2022-12-04T03:10:58.010Z,53.53
2022-12-04T03:13:49.549Z,54.42
2022-12-04T03:16:21.520Z,58.30
2022-12-04T03:18:57.668Z,56.45
2022-12-04T03:21:29.876Z,58.17
2022-12-04T03:24:06.573Z,59.80
2022-12-04T03:26:45.442Z,59.25
2022-12-04T03:29:22.427Z,50.72
2022-12-04T03:31:56.165Z,53.00
2022-12-04T03:34:32.282Z,56.05
2022-12-04T03:37:05.601Z,51.20
2022-12-04T03:39:38.693Z,53.58
2022-12-04T03:42:16.084Z,58.47
2022-12-04T03:45:08.404Z,55.15
2022-12-04T03:47:42.467Z,56.15
2022-12-04T03:50:23.190Z,46.28
2022-12-04T03:53:04.062Z,59.05
2022-12-04T03:55:39.180Z,59.03
2022-12-04T03:58:12.758Z,59.85
2022-12-04T04:00:42.742Z,51.90
2022-12-04T04:03:19.132Z,58.47
2022-12-04T04:05:50.439Z,55.17
2022-12-04T04:08:29.451Z,59.90
2022-12-04T04:11:08.343Z,52.92
2022-12-04T04:14:11.805Z,56.75
2022-12-04T04:17:01.650Z,58.75
2022-12-04T04:19:50.436Z,63.25
2022-12-04T04:22:38.226Z,51.55
2022-12-04T04:25:13.246Z,53.55
2022-12-04T04:27:39.920Z,53.55
2022-12-04T04:30:08.028Z,53.00
2022-12-04T04:32:42.580Z,59.83
2022-12-04T04:35:38.173Z,57.90
2022-12-04T04:38:26.389Z,58.03
2022-12-04T04:41:09.422Z,52.70
2022-12-04T04:43:46.273Z,55.47
2022-12-04T04:46:19.732Z,56.17
2022-12-04T04:48:54.357Z,56.05
2022-12-04T04:51:21.040Z,62.85
2022-12-04T04:53:51.529Z,54.60
2022-12-04T04:56:22.335Z,53.88
2022-12-04T04:58:48.874Z,58.90
2022-12-04T05:01:18.778Z,56.30
2022-12-04T05:03:45.632Z,63.92
2022-12-04T05:06:12.205Z,59.92
2022-12-04T05:08:39.127Z,58.05
2022-12-04T05:11:06.536Z,58.92
2022-12-04T05:13:33.027Z,56.63
2022-12-04T05:16:01.996Z,63.78
2022-12-04T05:18:29.117Z,59.85
2022-12-04T05:20:55.853Z,64.53
2022-12-04T05:23:23.344Z,55.67
2022-12-04T05:25:50.051Z,52.65
2022-12-04T05:28:16.625Z,57.97
2022-12-04T05:30:43.226Z,60.92
2022-12-04T05:33:10.614Z,64.38
2022-12-04T05:35:37.053Z,57.70
2022-12-04T05:38:03.568Z,60.42
2022-12-04T05:40:29.983Z,57.22
2022-12-04T05:42:57.134Z,62.13
2022-12-04T05:45:24.553Z,52.17
2022-12-04T05:47:51.409Z,58.03
2022-12-04T05:50:17.945Z,53.47
2022-12-04T05:52:44.407Z,62.67
2022-12-04T05:55:10.828Z,61.83
2022-12-04T05:57:37.250Z,65.65
2022-12-04T06:00:05.093Z,64.00
2022-12-04T06:02:37.860Z,67.18
2022-12-04T06:05:04.906Z,55.88
2022-12-04T06:07:31.418Z,54.08
2022-12-04T06:09:58.219Z,61.47
2022-12-04T06:12:24.931Z,58.85
2022-12-04T06:14:51.349Z,60.75
2022-12-04T06:17:17.786Z,65.55
2022-12-04T06:19:44.227Z,61.83
2022-12-04T06:22:10.763Z,56.42
2022-12-04T06:24:37.260Z,65.80
2022-12-04T06:27:26.711Z,60.35
2022-12-04T06:29:50.346Z,56.05
2022-12-04T06:32:21.431Z,70.00
2022-12-04T06:34:55.230Z,63.22
2022-12-04T06:37:24.323Z,71.70
2022-12-04T06:39:50.884Z,64.72
2022-12-04T06:42:17.392Z,68.03
2022-12-04T06:44:43.780Z,63.60
2022-12-04T06:47:10.255Z,59.97
2022-12-04T06:49:36.740Z,68.00
2022-12-04T06:52:03.766Z,70.45
2022-12-04T06:54:30.195Z,56.53
2022-12-04T06:56:56.734Z,60.25
2022-12-04T06:59:23.735Z,64.43
2022-12-04T07:01:50.609Z,58.05
2022-12-04T07:04:17.209Z,66.28
2022-12-04T07:06:43.644Z,67.40
2022-12-04T07:09:15.279Z,70.93
2022-12-04T07:11:42.803Z,78.15
2022-12-04T07:14:10.217Z,71.22
2022-12-04T07:16:41.044Z,63.70
2022-12-04T07:19:09.954Z,68.05
2022-12-04T07:21:36.681Z,59.00
2022-12-04T07:24:03.379Z,68.07
2022-12-04T07:26:31.008Z,74.53
2022-12-04T07:28:58.331Z,70.55
2022-12-04T07:31:26.531Z,75.38
2022-12-04T07:33:54.330Z,63.05
2022-12-04T07:36:22.479Z,60.90
2022-12-04T07:38:49.789Z,71.13
2022-12-04T07:41:17.089Z,59.42
2022-12-04T07:43:43.960Z,62.22
2022-12-04T07:46:16.546Z,74.07
2022-12-04T07:48:43.924Z,74.03
2022-12-04T07:51:16.762Z,58.83
2022-12-04T07:53:44.044Z,83.93
2022-12-04T07:56:12.079Z,72.30
2022-12-04T07:58:39.430Z,81.13
2022-12-04T08:01:07.160Z,77.18
2022-12-04T08:03:33.670Z,64.30
2022-12-04T08:06:01.566Z,65.63
2022-12-04T08:08:28.496Z,66.65
2022-12-04T08:10:55.079Z,63.70
2022-12-04T08:13:21.844Z,72.78
2022-12-04T08:15:48.325Z,71.63
2022-12-04T08:18:14.912Z,66.57
2022-12-04T08:20:41.434Z,61.47
2022-12-04T08:23:08.015Z,69.38
2022-12-04T08:25:34.640Z,67.25
2022-12-04T08:28:01.116Z,74.80
2022-12-04T08:30:27.585Z,66.65
2022-12-04T08:32:53.992Z,67.22
2022-12-04T08:35:20.557Z,62.38
2022-12-04T08:37:47.100Z,72.75
2022-12-04T08:40:14.024Z,68.90
2022-12-04T08:42:40.427Z,68.68
2022-12-04T08:45:07.509Z,68.97
2022-12-04T08:47:33.921Z,68.93
2022-12-04T08:50:00.346Z,70.43
2022-12-04T08:52:26.781Z,67.13
2022-12-04T08:54:53.169Z,72.35
2022-12-04T08:57:19.607Z,65.93
2022-12-04T08:59:46.043Z,67.90
2022-12-04T09:02:13.120Z,76.93
2022-12-04T09:04:39.627Z,76.28
2022-12-04T09:07:06.164Z,67.90
2022-12-04T09:09:32.757Z,64.88
2022-12-04T09:11:59.322Z,67.35
2022-12-04T09:14:26.507Z,64.45
2022-12-04T09:16:53.637Z,72.30
2022-12-04T09:19:20.911Z,60.20
2022-12-04T09:21:47.798Z,73.28
2022-12-04T09:24:14.635Z,63.72
2022-12-04T09:26:42.142Z,70.93
2022-12-04T09:29:08.636Z,62.25
2022-12-04T09:31:35.298Z,62.25
2022-12-04T09:34:02.028Z,60.25
2022-12-04T09:36:29.405Z,64.32
2022-12-04T09:38:55.882Z,69.15
2022-12-04T09:42:16.535Z,68.97
2022-12-04T09:45:02.187Z,66.20
2022-12-04T09:47:36.473Z,67.88
2022-12-04T09:50:21.666Z,66.90
2022-12-04T09:53:10.071Z,64.57
2022-12-04T09:55:42.294Z,62.85
2022-12-04T09:58:14.853Z,64.88
2022-12-04T10:00:44.060Z,57.13
2022-12-04T10:03:17.042Z,66.25
2022-12-04T10:06:06.432Z,58.83
2022-12-04T10:08:42.245Z,55.92
2022-12-04T10:11:21.357Z,68.03
2022-12-04T10:14:04.334Z,57.08
2022-12-04T10:16:54.321Z,55.10
2022-12-04T10:19:39.519Z,67.57
2022-12-04T10:22:44.025Z,55.97
2022-12-04T10:25:21.987Z,52.80
2022-12-04T10:27:58.055Z,52.63
2022-12-04T10:30:32.135Z,58.42
2022-12-04T10:33:04.903Z,50.38
2022-12-04T10:35:35.174Z,54.80
2022-12-04T10:38:06.796Z,52.92
2022-12-04T10:40:41.599Z,57.00
2022-12-04T10:43:22.984Z,52.17
2022-12-04T10:45:49.717Z,66.90
2022-12-04T10:48:38.723Z,54.83
2022-12-04T10:51:05.464Z,48.22
2022-12-04T10:53:35.930Z,52.88
2022-12-04T10:56:10.545Z,49.83
2022-12-04T10:58:37.486Z,60.22
2022-12-04T11:01:10.566Z,56.13
2022-12-04T11:03:37.433Z,48.15
2022-12-04T11:06:06.539Z,61.58
2022-12-04T11:08:38.355Z,56.20
2022-12-04T11:11:08.538Z,64.72
2022-12-04T11:13:35.030Z,59.90
2022-12-04T11:16:01.689Z,51.70
2022-12-04T11:18:48.693Z,48.55
2022-12-04T11:21:18.907Z,53.17
2022-12-04T11:23:49.629Z,57.20
2022-12-04T11:26:28.320Z,52.15
2022-12-04T11:28:55.497Z,52.63
2022-12-04T11:31:23.109Z,56.67
2022-12-04T11:33:56.635Z,54.65
2022-12-04T11:36:35.503Z,56.65
2022-12-04T11:39:18.891Z,55.10
2022-12-04T11:41:45.470Z,50.38
2022-12-04T11:44:24.786Z,51.70
2022-12-04T11:46:54.590Z,55.30
2022-12-04T11:49:26.467Z,51.47
2022-12-04T11:52:15.219Z,54.78
2022-12-04T11:54:56.780Z,55.30
2022-12-04T11:58:04.328Z,48.60
2022-12-04T12:00:36.799Z,58.95
2022-12-04T12:03:16.165Z,51.45
2022-12-04T12:06:18.618Z,47.20
2022-12-04T12:08:59.586Z,47.35
2022-12-04T12:11:44.572Z,53.97
2022-12-04T12:14:45.179Z,56.45
2022-12-04T12:17:41.722Z,51.20
2022-12-04T12:22:51.522Z,50.88
2022-12-04T12:25:52.797Z,50.22
2022-12-04T12:28:38.619Z,47.45
2022-12-04T12:31:28.635Z,52.90
2022-12-04T12:34:01.588Z,54.70
2022-12-04T12:36:33.856Z,47.20
2022-12-04T12:39:15.636Z,49.78
2022-12-04T12:41:47.934Z,50.33
2022-12-04T12:44:21.607Z,48.90
2022-12-04T12:46:56.457Z,53.10
2022-12-04T12:49:33.656Z,52.05
2022-12-04T12:52:30.228Z,47.65
2022-12-04T12:55:23.203Z,50.78
2022-12-04T12:58:10.465Z,42.88
2022-12-04T13:00:43.508Z,43.65
2022-12-04T13:03:37.570Z,49.33
2022-12-04T13:06:09.334Z,43.50
2022-12-04T13:08:43.592Z,45.55
2022-12-04T13:11:21.584Z,46.35
2022-12-04T13:13:53.183Z,44.00
2022-12-04T13:16:24.342Z,44.63
2022-12-04T13:19:22.508Z,46.15
2022-12-04T13:22:18.185Z,47.15
2022-12-04T13:25:08.810Z,43.60
2022-12-04T13:28:14.734Z,47.42
2022-12-04T13:30:57.042Z,44.80
2022-12-04T13:33:54.600Z,48.97
2022-12-04T13:36:29.231Z,41.30
2022-12-04T13:39:14.280Z,38.33
2022-12-04T13:41:40.773Z,42.63
2022-12-04T13:44:20.491Z,37.58
2022-12-04T13:46:57.454Z,40.33
2022-12-04T13:49:27.910Z,39.83
2022-12-04T13:51:56.312Z,42.65
2022-12-04T13:54:29.820Z,44.63
2022-12-04T13:57:10.628Z,38.22
2022-12-04T13:59:39.787Z,41.08
2022-12-04T14:02:47.530Z,40.95
2022-12-04T14:05:14.461Z,42.78
2022-12-04T14:08:18.489Z,45.28
2022-12-04T14:11:05.975Z,37.75
2022-12-04T14:13:44.807Z,37.45
2022-12-04T14:16:20.991Z,41.85
2022-12-04T14:18:53.651Z,49.65
2022-12-04T14:21:26.431Z,43.13
2022-12-04T14:23:53.454Z,45.38
2022-12-04T14:26:21.488Z,46.78
2022-12-04T14:28:48.941Z,39.83
2022-12-04T14:31:59.227Z,44.33
2022-12-04T14:34:40.769Z,40.22
2022-12-04T14:37:43.786Z,47.58
2022-12-04T14:40:42.151Z,44.33
2022-12-04T14:43:31.987Z,53.10
2022-12-04T14:49:00.365Z,44.65
2022-12-04T14:51:38.447Z,53.80
2022-12-04T14:54:15.000Z,49.50
2022-12-04T14:57:10.966Z,45.72
2022-12-04T15:00:31.521Z,54.95
2022-12-04T15:03:33.371Z,50.13
2022-12-04T15:08:33.838Z,53.28
2022-12-04T15:11:22.512Z,53.15
2022-12-04T15:13:50.353Z,45.88
2022-12-04T15:16:20.047Z,62.97
2022-12-04T15:18:59.641Z,57.05
2022-12-04T15:21:39.684Z,56.97
2022-12-04T15:24:26.400Z,59.08
2022-12-04T15:26:54.156Z,54.22
2022-12-04T15:29:27.948Z,59.90
2022-12-04T15:32:00.265Z,62.97
2022-12-04T15:34:38.209Z,62.45
2022-12-04T15:37:08.867Z,52.53
2022-12-04T15:39:38.127Z,65.38
2022-12-04T15:43:09.517Z,57.35
2022-12-04T15:45:35.789Z,63.53
2022-12-04T15:48:04.180Z,55.80
2022-12-04T15:50:35.651Z,55.03
2022-12-04T15:53:06.372Z,53.88
2022-12-04T15:55:48.206Z,56.28
2022-12-04T15:58:29.383Z,53.25
2022-12-04T16:01:05.368Z,55.03
2022-12-04T16:03:41.687Z,51.67
2022-12-04T16:06:21.135Z,58.17
2022-12-04T16:09:21.789Z,63.08
2022-12-04T16:12:03.074Z,51.67
2022-12-04T16:14:30.319Z,58.88
2022-12-04T16:17:05.930Z,55.28
2022-12-04T16:22:14.726Z,48.78
2022-12-04T16:24:44.878Z,52.53
2022-12-04T16:27:15.913Z,56.50
2022-12-04T16:29:42.995Z,54.40
2022-12-04T16:32:14.680Z,53.40
2022-12-04T16:34:41.820Z,54.50
2022-12-04T16:37:17.610Z,59.95
2022-12-04T16:39:47.063Z,51.88
2022-12-04T16:42:25.299Z,55.92
2022-12-04T16:44:52.923Z,55.63
2022-12-04T16:47:21.120Z,55.83
2022-12-04T16:49:50.509Z,57.53
2022-12-04T16:52:19.710Z,49.90
2022-12-04T16:54:47.037Z,54.35
2022-12-04T16:57:14.145Z,53.33
2022-12-04T16:59:42.555Z,53.67
2022-12-04T17:02:17.551Z,61.10
2022-12-04T17:04:46.022Z,65.15
2022-12-04T17:07:14.117Z,48.15
2022-12-04T17:09:40.944Z,56.92
2022-12-04T17:12:09.142Z,56.35
2022-12-04T17:14:36.092Z,53.45
2022-12-04T17:17:04.858Z,52.58
2022-12-04T17:19:31.763Z,51.88
2022-12-04T17:22:23.360Z,51.25
2022-12-04T17:24:55.971Z,48.13
2022-12-04T17:30:20.450Z,55.88
2022-12-04T17:32:51.450Z,53.55
2022-12-04T17:35:23.276Z,45.63
2022-12-04T17:38:05.329Z,48.70
2022-12-04T17:40:33.089Z,52.00
2022-12-04T17:42:59.925Z,55.78
2022-12-04T17:45:28.655Z,60.80
2022-12-04T17:47:55.818Z,51.70
2022-12-04T17:50:23.086Z,48.25
2022-12-04T17:52:50.048Z,45.60
2022-12-04T17:55:17.162Z,46.50
2022-12-04T17:57:44.131Z,43.05
2022-12-04T18:00:11.383Z,46.92
2022-12-04T18:02:48.714Z,47.83
2022-12-04T18:05:18.404Z,41.25
2022-12-04T18:07:50.541Z,42.35
2022-12-04T18:10:30.642Z,42.38
2022-12-04T18:22:18.839Z,39.88
2022-12-04T18:24:53.453Z,39.80
2022-12-04T18:27:23.759Z,36.30
2022-12-04T18:29:57.420Z,41.70
2022-12-04T18:32:34.865Z,42.42
2022-12-04T18:37:48.587Z,35.70
2022-12-04T18:40:16.109Z,31.83
2022-12-04T18:42:43.767Z,38.75
2022-12-04T18:45:11.178Z,39.10
2022-12-04T18:47:38.054Z,45.63
2022-12-04T18:50:05.203Z,39.53
2022-12-04T18:52:36.906Z,35.50
2022-12-04T18:55:03.915Z,36.05
2022-12-04T18:57:31.772Z,34.42
2022-12-04T18:59:59.222Z,38.45
2022-12-04T19:02:28.071Z,32.72
2022-12-04T19:04:56.149Z,40.65
2022-12-04T19:07:22.882Z,36.40
2022-12-04T19:12:36.789Z,43.53
2022-12-04T19:15:04.050Z,39.67
2022-12-04T19:17:31.098Z,42.92
2022-12-04T19:19:59.773Z,43.20
2022-12-04T19:22:26.381Z,50.35
2022-12-04T19:24:53.369Z,46.90
2022-12-04T19:27:20.513Z,37.13
2022-12-04T19:29:48.100Z,40.42
2022-12-04T19:32:15.131Z,39.20
2022-12-04T19:34:43.048Z,35.60
2022-12-04T19:37:09.949Z,45.47
2022-12-04T19:39:40.111Z,35.85
2022-12-04T19:42:07.669Z,41.17
2022-12-04T19:44:50.706Z,39.08
2022-12-04T19:47:18.858Z,44.05
2022-12-04T19:49:46.888Z,34.65
2022-12-04T19:52:13.690Z,36.63
2022-12-04T19:54:40.739Z,39.97
2022-12-04T19:57:08.160Z,36.30
2022-12-04T19:59:38.563Z,42.38
2022-12-04T20:02:08.728Z,35.28
2022-12-04T20:04:35.359Z,39.55
2022-12-04T20:07:01.994Z,34.03
2022-12-04T20:09:28.697Z,34.33
2022-12-04T20:11:55.545Z,36.80
2022-12-04T20:14:22.843Z,35.60
2022-12-04T20:16:50.486Z,36.55
2022-12-04T20:19:20.679Z,39.15
2022-12-04T20:21:47.921Z,36.55
2022-12-04T20:24:16.891Z,37.10
2022-12-04T20:26:47.255Z,38.95
2022-12-04T20:29:17.519Z,39.13
2022-12-04T20:31:45.941Z,40.88
2022-12-04T20:34:17.126Z,43.03
2022-12-04T20:36:45.782Z,30.83
2022-12-04T20:39:15.056Z,39.00
2022-12-04T20:41:42.864Z,39.15
2022-12-04T20:44:13.344Z,38.50
2022-12-04T20:46:42.935Z,38.60
2022-12-04T20:49:21.632Z,38.35
2022-12-04T20:51:49.243Z,38.33
2022-12-04T20:54:20.286Z,34.15
2022-12-04T20:56:48.916Z,34.13
2022-12-04T20:59:21.718Z,40.63
2022-12-04T21:01:49.455Z,35.88
2022-12-04T21:04:18.056Z,37.13
2022-12-04T21:06:47.069Z,44.45
2022-12-04T21:09:24.323Z,41.53
2022-12-04T21:11:54.684Z,40.50
2022-12-04T21:14:46.442Z,36.22
2022-12-04T21:17:18.505Z,37.92
2022-12-04T21:19:46.913Z,39.10
2022-12-04T21:22:15.490Z,45.38
2022-12-04T21:24:42.298Z,35.83
2022-12-04T21:27:14.404Z,40.55
2022-12-04T21:29:45.438Z,34.58
2022-12-04T21:32:12.159Z,36.58
2022-12-04T21:34:39.906Z,43.33
2022-12-04T21:37:06.726Z,41.97
2022-12-04T21:39:33.509Z,43.63
2022-12-04T21:42:21.297Z,44.50
2022-12-04T21:44:47.899Z,54.53
2022-12-04T21:47:40.223Z,44.25
2022-12-04T21:50:08.427Z,53.58
2022-12-04T21:52:35.246Z,42.08
2022-12-04T21:55:02.138Z,47.70
2022-12-04T21:57:30.201Z,53.53
2022-12-04T22:00:04.115Z,42.85
2022-12-04T22:02:32.623Z,46.28
2022-12-04T22:05:01.672Z,54.92
2022-12-04T22:07:30.625Z,42.72
2022-12-04T22:09:57.878Z,53.00
2022-12-04T22:12:48.599Z,46.78
2022-12-04T22:15:17.633Z,53.65
2022-12-04T22:17:45.707Z,108.55
2022-12-04T22:20:19.857Z,66.70
2022-12-04T22:22:46.752Z,51.45
2022-12-04T22:25:14.655Z,48.03
2022-12-04T22:27:41.502Z,50.25
2022-12-04T22:30:08.803Z,43.63
2022-12-04T22:32:35.645Z,41.83
2022-12-04T22:35:03.528Z,43.78
2022-12-04T22:37:30.177Z,45.15
2022-12-04T22:39:57.183Z,46.22
2022-12-04T22:42:27.481Z,48.17
2022-12-04T22:44:54.065Z,47.13
2022-12-04T22:47:20.793Z,44.45
2022-12-04T22:49:47.545Z,41.58
2022-12-04T22:52:39.144Z,48.00
2022-12-04T22:55:09.540Z,48.30
2022-12-04T22:57:38.370Z,48.10
2022-12-04T23:00:06.823Z,48.55
2022-12-04T23:02:33.756Z,48.00
2022-12-04T23:05:02.269Z,59.58
2022-12-04T23:07:30.949Z,43.92
2022-12-04T23:09:57.852Z,44.22
2022-12-04T23:12:29.532Z,52.83
2022-12-04T23:14:56.220Z,50.53
2022-12-04T23:17:23.311Z,43.90
2022-12-04T23:19:54.910Z,44.80
2022-12-04T23:22:24.888Z,46.58
2022-12-04T23:24:51.477Z,48.75
2022-12-04T23:27:19.330Z,43.17
2022-12-04T23:29:54.203Z,48.40
2022-12-04T23:32:20.894Z,45.47
2022-12-04T23:34:47.362Z,46.95
2022-12-04T23:37:13.867Z,55.78
2022-12-04T23:39:40.303Z,45.85
2022-12-04T23:42:06.776Z,48.72
2022-12-04T23:44:33.306Z,44.22
2022-12-04T23:46:59.805Z,44.17
2022-12-04T23:49:26.290Z,43.17
2022-12-04T23:51:52.769Z,45.15
2022-12-04T23:54:19.212Z,42.42
2022-12-04T23:56:45.718Z,44.10
2022-12-04T23:59:12.121Z,41.85
